Time,TemperatureF,DewpointF,PressureIn,WindDirection,WindDirectionDegrees,WindSpeedMPH,WindSpeedGustMPH,Humidity,HourlyPrecipIn,Conditions,Clouds,dailyrainin,SoftwareType,DateUTC
2013-02-26 00:01:00,27.0,24.0,-100.00,SSE,149,3.0,4.0,89,0.00,,,0.00,,2013-02-26 05:01:00,
2013-02-26 00:32:00,28.0,26.0,-100.00,NE,43,1.0,2.0,92,0.00,,,0.00,,2013-02-26 05:32:00,
2013-02-26 00:43:00,28.0,26.0,-100.00,NE,43,1.0,2.0,92,0.00,,,0.00,,2013-02-26 05:43:00,
2013-02-26 00:52:00,28.0,26.0,-100.00,NE,43,1.0,2.0,92,0.00,,,0.00,,2013-02-26 05:52:00,
2013-02-26 01:02:00,28.0,26.0,-100.00,NE,43,1.0,2.0,92,0.00,,,0.00,,2013-02-26 06:02:00,
2013-02-26 01:32:00,28.0,26.0,-100.00,North,3,1.0,3.0,91,0.00,,,0.00,,2013-02-26 06:32:00,
2013-02-26 01:42:00,28.0,26.0,-100.00,North,3,1.0,3.0,91,0.00,,,0.00,,2013-02-26 06:42:00,
2013-02-26 01:52:00,28.0,26.0,-100.00,North,3,1.0,3.0,91,0.00,,,0.00,,2013-02-26 06:52:00,
2013-02-26 02:01:00,28.0,26.0,-100.00,North,3,1.0,3.0,91,0.00,,,0.00,,2013-02-26 07:01:00,
2013-02-26 02:32:00,28.0,26.0,-100.00,SE,126,1.0,3.0,91,0.00,,,0.00,,2013-02-26 07:32:00,
2013-02-26 02:42:00,28.0,26.0,-100.00,SE,126,1.0,3.0,91,0.00,,,0.00,,2013-02-26 07:42:00,
2013-02-26 02:52:00,28.0,26.0,-100.00,SE,126,1.0,3.0,91,0.00,,,0.00,,2013-02-26 07:52:00,
2013-02-26 03:02:00,28.0,26.0,-100.00,SE,126,1.0,3.0,91,0.00,,,0.00,,2013-02-26 08:02:00,
2013-02-26 03:21:00,27.0,25.0,-100.00,East,98,1.0,3.0,92,0.00,,,0.00,,2013-02-26 08:21:00,
2013-02-26 03:32:00,27.0,25.0,-100.00,East,98,1.0,3.0,92,0.00,,,0.00,,2013-02-26 08:32:00,
2013-02-26 03:42:00,27.0,25.0,-100.00,East,98,1.0,3.0,92,0.00,,,0.00,,2013-02-26 08:42:00,
2013-02-26 03:52:00,27.0,25.0,-100.00,East,98,1.0,3.0,92,0.00,,,0.00,,2013-02-26 08:52:00,
2013-02-26 04:01:00,27.0,25.0,-100.00,East,98,1.0,3.0,92,0.00,,,0.00,,2013-02-26 09:01:00,
2013-02-26 04:32:00,28.0,26.0,-100.00,ENE,67,1.0,3.0,92,0.00,,,-99.99,,2013-02-26 09:32:00,
2013-02-26 04:43:00,28.0,26.0,-100.00,ENE,67,1.0,3.0,92,0.00,,,-99.99,,2013-02-26 09:43:00,
2013-02-26 04:52:00,28.0,26.0,-100.00,ENE,67,1.0,3.0,92,0.00,,,-99.99,,2013-02-26 09:52:00,
2013-02-26 05:01:00,28.0,26.0,-100.00,ENE,67,1.0,3.0,92,0.00,,,-99.99,,2013-02-26 10:01:00,
2013-02-26 05:21:00,27.0,26.0,-100.00,NE,39,1.0,2.0,95,0.00,,,0.00,,2013-02-26 10:21:00,
2013-02-26 05:32:00,27.0,26.0,-100.00,NE,39,1.0,2.0,95,0.00,,,0.00,,2013-02-26 10:32:00,
2013-02-26 05:42:00,27.0,26.0,-100.00,NE,39,1.0,2.0,95,0.00,,,0.00,,2013-02-26 10:42:00,
2013-02-26 05:52:00,27.0,26.0,-100.00,NE,39,1.0,2.0,95,0.00,,,0.00,,2013-02-26 10:52:00,
2013-02-26 06:01:00,27.0,26.0,-100.00,NE,39,1.0,2.0,95,0.00,,,0.00,,2013-02-26 11:01:00,
2013-02-26 06:22:00,28.0,27.0,-100.00,ESE,113,2.0,5.0,96,0.00,,,0.00,,2013-02-26 11:22:00,
2013-02-26 06:32:00,28.0,27.0,-100.00,ESE,113,2.0,5.0,96,0.00,,,0.00,,2013-02-26 11:32:00,
2013-02-26 06:42:00,28.0,27.0,-100.00,ESE,113,2.0,5.0,96,0.00,,,0.00,,2013-02-26 11:42:00,
2013-02-26 06:52:00,28.0,27.0,-100.00,ESE,113,2.0,5.0,96,0.00,,,0.00,,2013-02-26 11:52:00,
2013-02-26 07:01:00,28.0,27.0,-100.00,ESE,113,2.0,5.0,96,0.00,,,0.00,,2013-02-26 12:01:00,
2013-02-26 07:22:00,28.0,27.0,-100.00,East,91,3.0,4.0,96,0.00,,,-99.99,,2013-02-26 12:22:00,
2013-02-26 07:32:00,28.0,27.0,-100.00,East,91,3.0,4.0,96,0.00,,,-99.99,,2013-02-26 12:32:00,
2013-02-26 07:42:00,28.0,27.0,-100.00,East,91,3.0,4.0,96,0.00,,,-99.99,,2013-02-26 12:42:00,
2013-02-26 07:53:00,28.0,27.0,-100.00,East,91,3.0,4.0,96,0.00,,,-99.99,,2013-02-26 12:53:00,
2013-02-26 08:01:00,28.0,27.0,-100.00,East,91,3.0,4.0,96,0.00,,,-99.99,,2013-02-26 13:01:00,
2013-02-26 08:22:00,29.0,28.0,-100.00,East,97,3.0,5.0,95,0.00,,,0.00,,2013-02-26 13:22:00,
2013-02-26 08:32:00,29.0,28.0,-100.00,East,97,3.0,5.0,95,0.00,,,0.00,,2013-02-26 13:32:00,
2013-02-26 08:42:00,29.0,28.0,-100.00,East,97,3.0,5.0,95,0.00,,,0.00,,2013-02-26 13:42:00,
2013-02-26 08:52:00,29.0,28.0,-100.00,East,97,3.0,5.0,95,0.00,,,0.00,,2013-02-26 13:52:00,
2013-02-26 09:01:00,29.0,28.0,-100.00,East,97,3.0,5.0,95,0.00,,,0.00,,2013-02-26 14:01:00,
2013-02-26 09:32:00,29.0,26.0,-100.00,East,98,3.0,6.0,90,0.00,,,0.00,,2013-02-26 14:32:00,
2013-02-26 09:42:00,29.0,26.0,-100.00,East,98,3.0,6.0,90,0.00,,,0.00,,2013-02-26 14:42:00,
2013-02-26 09:52:00,29.0,26.0,-100.00,East,98,3.0,6.0,90,0.00,,,0.00,,2013-02-26 14:52:00,
2013-02-26 10:02:00,29.0,26.0,-100.00,East,98,3.0,6.0,90,0.00,,,0.00,,2013-02-26 15:02:00,
2013-02-26 10:32:00,30.0,26.0,-100.00,ENE,74,5.0,7.0,85,0.00,,,0.00,,2013-02-26 15:32:00,
2013-02-26 10:42:00,30.0,26.0,-100.00,ENE,74,5.0,7.0,85,0.00,,,0.00,,2013-02-26 15:42:00,
2013-02-26 10:52:00,30.0,26.0,-100.00,ENE,74,5.0,7.0,85,0.00,,,0.00,,2013-02-26 15:52:00,
2013-02-26 11:01:00,30.0,26.0,-100.00,ENE,74,5.0,7.0,85,0.00,,,0.00,,2013-02-26 16:01:00,
2013-02-26 11:32:00,31.0,25.0,-100.00,East,97,5.0,9.0,79,0.00,,,0.00,,2013-02-26 16:32:00,
2013-02-26 11:42:00,31.0,25.0,-100.00,East,97,5.0,9.0,79,0.00,,,0.00,,2013-02-26 16:42:00,
2013-02-26 11:52:00,31.0,25.0,-100.00,East,97,5.0,9.0,79,0.00,,,0.00,,2013-02-26 16:52:00,
2013-02-26 12:01:00,31.0,25.0,-100.00,East,97,5.0,9.0,79,0.00,,,0.00,,2013-02-26 17:01:00,
2013-02-26 12:32:00,32.0,24.0,-100.00,East,95,7.0,14.0,71,0.00,,,0.00,,2013-02-26 17:32:00,
2013-02-26 12:42:00,32.0,24.0,-100.00,East,95,7.0,14.0,71,0.00,,,0.00,,2013-02-26 17:42:00,
2013-02-26 12:52:00,32.0,24.0,-100.00,East,95,7.0,14.0,71,0.00,,,0.00,,2013-02-26 17:52:00,
2013-02-26 13:01:00,32.0,24.0,-100.00,East,95,7.0,14.0,71,0.00,,,0.00,,2013-02-26 18:01:00,
2013-02-26 13:32:00,34.0,23.0,-100.00,East,85,8.0,12.0,64,0.00,,,0.00,,2013-02-26 18:32:00,
2013-02-26 13:42:00,34.0,23.0,-100.00,East,85,8.0,12.0,64,0.00,,,0.00,,2013-02-26 18:42:00,
2013-02-26 13:52:00,34.0,23.0,-100.00,East,85,8.0,12.0,64,0.00,,,0.00,,2013-02-26 18:52:00,
2013-02-26 14:01:00,34.0,23.0,-100.00,East,85,8.0,12.0,64,0.00,,,0.00,,2013-02-26 19:01:00,
2013-02-26 14:32:00,33.0,22.0,-100.00,East,85,10.0,16.0,64,0.00,,,0.00,,2013-02-26 19:32:00,
2013-02-26 14:42:00,33.0,22.0,-100.00,East,85,10.0,16.0,64,0.00,,,0.00,,2013-02-26 19:42:00,
2013-02-26 14:52:00,33.0,22.0,-100.00,East,85,10.0,16.0,64,0.00,,,0.00,,2013-02-26 19:52:00,
2013-02-26 15:01:00,33.0,22.0,-100.00,East,85,10.0,16.0,64,0.00,,,0.00,,2013-02-26 20:01:00,
2013-02-26 16:31:00,33.0,26.0,-100.00,ENE,71,11.0,16.0,74,-99.99,,,0.00,,2013-02-26 21:31:00,
2013-02-26 16:41:00,33.0,26.0,-100.00,ENE,71,11.0,16.0,74,-99.99,,,0.00,,2013-02-26 21:41:00,
2013-02-26 16:51:00,33.0,26.0,-100.00,ENE,71,11.0,16.0,74,-99.99,,,0.00,,2013-02-26 21:51:00,
2013-02-26 17:01:00,33.0,26.0,-100.00,ENE,71,11.0,16.0,74,-99.99,,,0.00,,2013-02-26 22:01:00,
2013-02-26 17:32:00,33.0,25.0,-100.00,East,80,11.0,20.0,71,0.00,,,0.00,,2013-02-26 22:32:00,
2013-02-26 17:42:00,33.0,25.0,-100.00,East,80,11.0,20.0,71,0.00,,,0.00,,2013-02-26 22:42:00,
2013-02-26 17:52:00,33.0,25.0,-100.00,East,80,11.0,20.0,71,0.00,,,0.00,,2013-02-26 22:52:00,
2013-02-26 18:01:00,33.0,25.0,-100.00,East,80,11.0,20.0,71,0.00,,,0.00,,2013-02-26 23:01:00,
2013-02-26 18:32:00,31.0,23.0,-100.00,ENE,78,9.0,20.0,71,0.00,,,0.00,,2013-02-26 23:32:00,
2013-02-26 18:42:00,31.0,23.0,-100.00,ENE,78,9.0,20.0,71,0.00,,,0.00,,2013-02-26 23:42:00,
2013-02-26 18:52:00,31.0,23.0,-100.00,ENE,78,9.0,20.0,71,0.00,,,0.00,,2013-02-26 23:52:00,
2013-02-26 19:01:00,31.0,23.0,-100.00,ENE,78,9.0,20.0,71,0.00,,,0.00,,2013-02-27 00:01:00,
2013-02-26 19:22:00,31.0,23.0,-100.00,ENE,63,8.0,17.0,72,0.00,,,0.00,,2013-02-27 00:22:00,
2013-02-26 19:32:00,31.0,23.0,-100.00,ENE,63,8.0,17.0,72,0.00,,,0.00,,2013-02-27 00:32:00,
2013-02-26 19:42:00,31.0,23.0,-100.00,ENE,63,8.0,17.0,72,0.00,,,0.00,,2013-02-27 00:42:00,
2013-02-26 19:52:00,31.0,23.0,-100.00,ENE,63,8.0,17.0,72,0.00,,,0.00,,2013-02-27 00:52:00,
2013-02-26 20:01:00,31.0,23.0,-100.00,ENE,63,8.0,17.0,72,0.00,,,0.00,,2013-02-27 01:01:00,
2013-02-26 20:22:00,30.0,22.0,-100.00,ENE,70,8.0,14.0,72,0.00,,,0.00,,2013-02-27 01:22:00,
2013-02-26 20:32:00,30.0,22.0,-100.00,ENE,70,8.0,14.0,72,0.00,,,0.00,,2013-02-27 01:32:00,
2013-02-26 20:42:00,30.0,22.0,-100.00,ENE,70,8.0,14.0,72,0.00,,,0.00,,2013-02-27 01:42:00,
2013-02-26 20:52:00,30.0,22.0,-100.00,ENE,70,8.0,14.0,72,0.00,,,0.00,,2013-02-27 01:52:00,
2013-02-26 21:01:00,30.0,22.0,-100.00,ENE,70,8.0,14.0,72,0.00,,,0.00,,2013-02-27 02:01:00,
2013-02-26 21:24:00,30.0,22.0,-100.00,ENE,74,7.0,15.0,73,0.00,,,0.00,,2013-02-27 02:24:00,
2013-02-26 21:32:00,30.0,22.0,-100.00,ENE,74,7.0,15.0,73,0.00,,,0.00,,2013-02-27 02:32:00,
2013-02-26 21:42:00,30.0,22.0,-100.00,ENE,74,7.0,15.0,73,0.00,,,0.00,,2013-02-27 02:42:00,
2013-02-26 21:52:00,30.0,22.0,-100.00,ENE,74,7.0,15.0,73,0.00,,,0.00,,2013-02-27 02:52:00,
2013-02-26 22:02:00,30.0,22.0,-100.00,ENE,74,7.0,15.0,73,0.00,,,0.00,,2013-02-27 03:02:00,
2013-02-26 22:32:00,29.0,22.0,-100.00,ENE,61,8.0,16.0,74,0.00,,,0.00,,2013-02-27 03:32:00,
2013-02-26 22:42:00,29.0,22.0,-100.00,ENE,61,8.0,16.0,74,0.00,,,0.00,,2013-02-27 03:42:00,
2013-02-26 22:52:00,29.0,22.0,-100.00,ENE,61,8.0,16.0,74,0.00,,,0.00,,2013-02-27 03:52:00,
2013-02-26 23:01:00,29.0,22.0,-100.00,ENE,61,8.0,16.0,74,0.00,,,0.00,,2013-02-27 04:01:00,
2013-02-26 23:32:00,28.0,21.0,-100.00,NE,48,7.0,17.0,76,0.00,,,0.00,,2013-02-27 04:32:00,
2013-02-26 23:42:00,28.0,21.0,-100.00,NE,48,7.0,17.0,76,0.00,,,0.00,,2013-02-27 04:42:00,
2013-02-26 23:52:00,28.0,21.0,-100.00,NE,48,7.0,17.0,76,0.00,,,0.00,,2013-02-27 04:52:00,